Time;durP1;ratioP1;P1;durP2;ratioP2;P2;SDS_P1;SDS_P2;PMS_P1;PMS_P2;Temp;Humidity;BMP_temperature;BMP_pressure;BME280_temperature;BME280_humidity;BME280_pressure;Samples;Min_cycle;Max_cycle;Signal;HPM_P1;HPM_P2
2022/01/03 00:01:29;;;;;;;7.50;2.75;;;;;;;;;;6146149;23;20112;-44
2022/01/03 00:03:55;;;;;;;9.05;2.60;;;;;;;;;;6148077;23;20033;-46
2022/01/03 00:06:21;;;;;;;7.95;3.42;;;;;;;;;;6145768;23;20088;-43
2022/01/03 00:08:46;;;;;;;7.57;3.10;;;;;;;;;;6147836;23;20013;-44
2022/01/03 00:11:12;;;;;;;10.73;3.35;;;;;;;;;;6145975;23;20108;-44
2022/01/03 00:13:44;;;;;;;7.80;2.78;;;;;;;;;;6147699;23;20017;-44
2022/01/03 00:16:10;;;;;;;9.15;2.67;;;;;;;;;;6146335;23;20013;-44
2022/01/03 00:18:36;;;;;;;7.15;2.67;;;;;;;;;;6147005;23;20142;-44
2022/01/03 00:21:01;;;;;;;4.35;2.13;;;;;;;;;;6145568;23;20018;-45
2022/01/03 00:23:29;;;;;;;8.13;2.28;;;;;;;;;;6144165;23;20024;-46
2022/01/03 00:25:58;;;;;;;9.80;2.63;;;;;;;;;;6147135;23;20025;-45
2022/01/03 00:28:25;;;;;;;5.70;2.20;;;;;;;;;;6145965;23;20017;-46
2022/01/03 00:30:54;;;;;;;4.65;2.55;;;;;;;;;;6147579;23;20437;-46
2022/01/03 00:33:19;;;;;;;11.83;2.70;;;;;;;;;;6146233;23;20014;-44
2022/01/03 00:35:45;;;;;;;6.38;2.97;;;;;;;;;;6147222;23;20076;-46
2022/01/03 00:38:11;;;;;;;7.53;2.10;;;;;;;;;;6146831;23;20014;-47
2022/01/03 00:40:37;;;;;;;7.20;2.53;;;;;;;;;;6144210;23;20017;-48
2022/01/03 00:43:03;;;;;;;4.47;1.52;;;;;;;;;;6145077;23;20014;-48
2022/01/03 00:45:29;;;;;;;5.50;2.38;;;;;;;;;;6145474;23;20349;-45
2022/01/03 00:47:55;;;;;;;7.97;2.55;;;;;;;;;;6147294;23;20444;-46
2022/01/03 00:50:22;;;;;;;5.97;2.80;;;;;;;;;;6146139;23;20017;-48
2022/01/03 00:52:48;;;;;;;6.28;2.00;;;;;;;;;;6147188;23;20325;-46
2022/01/03 00:55:14;;;;;;;6.57;2.47;;;;;;;;;;6145960;23;20033;-46
2022/01/03 00:57:59;;;;;;;8.52;2.58;;;;;;;;;;6147369;23;20455;-47
2022/01/03 01:00:24;;;;;;;7.75;3.03;;;;;;;;;;6146459;23;20016;-45
2022/01/03 01:03:11;;;;;;;6.25;2.20;;;;;;;;;;6147162;23;20408;-45
2022/01/03 01:05:47;;;;;;;5.18;2.50;;;;;;;;;;6146291;23;20472;-46
2022/01/03 01:08:12;;;;;;;4.65;2.25;;;;;;;;;;6145508;23;20040;-46
2022/01/03 01:10:39;;;;;;;4.15;1.98;;;;;;;;;;6147521;23;20009;-49
2022/01/03 01:13:07;;;;;;;6.13;2.55;;;;;;;;;;6146461;23;20009;-46
2022/01/03 01:15:32;;;;;;;6.93;2.20;;;;;;;;;;6146341;23;20029;-46
2022/01/03 01:17:58;;;;;;;10.15;2.47;;;;;;;;;;6146658;23;20622;-48
2022/01/03 01:20:25;;;;;;;7.40;2.25;;;;;;;;;;6145593;23;20024;-48
2022/01/03 01:22:50;;;;;;;7.63;2.33;;;;;;;;;;6144564;23;20093;-45
2022/01/03 01:27:52;;;;;;;7.22;2.80;;;;;;;;;;6144225;23;20010;-49
2022/01/03 01:30:19;;;;;;;5.90;2.30;;;;;;;;;;6142669;23;20125;-47
2022/01/03 01:32:50;;;;;;;7.82;1.92;;;;;;;;;;6143908;23;20068;-45
2022/01/03 01:35:17;;;;;;;5.25;2.58;;;;;;;;;;6142812;23;20018;-45
2022/01/03 01:37:43;;;;;;;7.75;2.53;;;;;;;;;;6144142;23;20012;-46
2022/01/03 01:40:08;;;;;;;7.38;2.53;;;;;;;;;;6143269;23;20009;-45
2022/01/03 01:42:35;;;;;;;6.05;2.20;;;;;;;;;;6143277;23;20713;-46
2022/01/03 01:45:04;;;;;;;8.65;2.58;;;;;;;;;;6143534;23;20018;-48
2022/01/03 01:47:31;;;;;;;4.75;2.20;;;;;;;;;;6142985;23;20014;-45
2022/01/03 01:49:57;;;;;;;11.00;2.58;;;;;;;;;;6142993;23;20013;-48
2022/01/03 01:52:23;;;;;;;5.18;2.83;;;;;;;;;;6143413;23;20182;-46
2022/01/03 01:54:50;;;;;;;6.40;1.95;;;;;;;;;;6147983;23;20091;-45
2022/01/03 01:57:19;;;;;;;7.35;2.60;;;;;;;;;;6147923;23;20041;-45
2022/01/03 01:59:54;;;;;;;6.47;2.25;;;;;;;;;;6148250;23;20065;-45
2022/01/03 02:02:26;;;;;;;7.00;2.60;;;;;;;;;;6147861;23;20018;-47
2022/01/03 02:05:01;;;;;;;8.68;2.33;;;;;;;;;;6148493;23;20048;-44
2022/01/03 02:07:53;;;;;;;10.95;2.92;;;;;;;;;;6147693;23;20408;-48
2022/01/03 02:10:24;;;;;;;5.47;2.45;;;;;;;;;;6147440;23;20120;-44
2022/01/03 02:12:49;;;;;;;6.93;3.45;;;;;;;;;;6147324;23;20025;-44
2022/01/03 02:15:16;;;;;;;6.40;2.88;;;;;;;;;;6147245;23;20352;-45
2022/01/03 02:17:44;;;;;;;5.28;2.67;;;;;;;;;;6148606;23;20081;-44
2022/01/03 02:20:17;;;;;;;9.30;2.70;;;;;;;;;;6147322;23;20018;-45
2022/01/03 02:22:43;;;;;;;4.75;2.17;;;;;;;;;;6148444;23;20092;-45
2022/01/03 02:25:10;;;;;;;6.35;2.63;;;;;;;;;;6147222;23;20025;-45
2022/01/03 02:27:36;;;;;;;4.45;2.05;;;;;;;;;;6148377;23;20005;-44
2022/01/03 02:30:02;;;;;;;5.28;2.60;;;;;;;;;;6147831;23;20033;-46
2022/01/03 02:32:27;;;;;;;8.20;3.85;;;;;;;;;;6147839;23;20013;-45
2022/01/03 02:34:52;;;;;;;8.23;2.28;;;;;;;;;;6148107;23;20009;-45
2022/01/03 02:37:18;;;;;;;7.78;2.28;;;;;;;;;;6147032;23;20013;-45
2022/01/03 02:39:43;;;;;;;4.53;2.17;;;;;;;;;;6148431;23;20002;-46
2022/01/03 02:42:08;;;;;;;8.05;2.10;;;;;;;;;;6148055;23;20096;-46
2022/01/03 02:44:34;;;;;;;8.98;2.35;;;;;;;;;;6147620;23;20793;-45
2022/01/03 02:46:59;;;;;;;6.15;2.35;;;;;;;;;;6147657;23;20017;-46
2022/01/03 02:49:24;;;;;;;5.35;1.92;;;;;;;;;;6147505;23;20744;-47
2022/01/03 02:51:49;;;;;;;7.85;2.10;;;;;;;;;;6147712;23;20345;-47
2022/01/03 02:54:15;;;;;;;4.50;2.10;;;;;;;;;;6147251;23;20344;-45
2022/01/03 02:56:41;;;;;;;4.35;1.90;;;;;;;;;;6147977;23;20051;-46
2022/01/03 02:59:11;;;;;;;7.10;2.30;;;;;;;;;;6148324;23;20009;-46
2022/01/03 03:01:36;;;;;;;8.73;3.65;;;;;;;;;;6147816;23;20501;-44
2022/01/03 03:04:01;;;;;;;7.75;2.20;;;;;;;;;;6147493;23;20479;-47
2022/01/03 03:06:29;;;;;;;4.35;2.53;;;;;;;;;;6146010;23;20360;-44
2022/01/03 03:08:54;;;;;;;6.55;2.30;;;;;;;;;;6148454;23;20029;-47
2022/01/03 03:11:19;;;;;;;6.80;2.65;;;;;;;;;;6146712;23;20022;-44
2022/01/03 03:13:44;;;;;;;9.40;2.30;;;;;;;;;;6148042;23;20014;-48
2022/01/03 03:16:10;;;;;;;8.07;2.53;;;;;;;;;;6147082;23;20022;-47
2022/01/03 03:18:35;;;;;;;8.00;3.00;;;;;;;;;;6147418;23;20040;-45
2022/01/03 03:21:00;;;;;;;4.95;2.10;;;;;;;;;;6147722;23;20064;-46
2022/01/03 03:23:27;;;;;;;8.27;2.13;;;;;;;;;;6146492;23;20017;-46
2022/01/03 03:25:52;;;;;;;7.60;2.25;;;;;;;;;;6145919;23;20017;-46
2022/01/03 03:28:17;;;;;;;4.82;2.58;;;;;;;;;;6146966;23;20492;-45
2022/01/03 03:30:44;;;;;;;2.75;1.67;;;;;;;;;;6147594;23;20014;-45
2022/01/03 03:33:17;;;;;;;3.60;1.77;;;;;;;;;;6146601;23;20388;-46
2022/01/03 03:35:43;;;;;;;5.03;1.98;;;;;;;;;;6145826;23;20448;-45
2022/01/03 03:38:08;;;;;;;7.03;2.78;;;;;;;;;;6147947;23;20016;-45
2022/01/03 03:40:34;;;;;;;7.15;2.42;;;;;;;;;;6146599;23;20070;-46
2022/01/03 03:42:59;;;;;;;5.10;2.05;;;;;;;;;;6147919;23;20423;-44
2022/01/03 03:45:25;;;;;;;5.40;1.70;;;;;;;;;;6145916;23;20025;-47
2022/01/03 03:47:51;;;;;;;6.25;2.33;;;;;;;;;;6147867;23;20010;-46
2022/01/03 03:50:16;;;;;;;5.53;2.05;;;;;;;;;;6144675;23;20010;-45
2022/01/03 03:52:43;;;;;;;9.57;2.78;;;;;;;;;;6146996;23;20005;-45
2022/01/03 03:55:08;;;;;;;5.97;1.30;;;;;;;;;;6147040;23;20013;-45
2022/01/03 03:57:33;;;;;;;5.53;1.95;;;;;;;;;;6147252;23;20010;-45
2022/01/03 03:59:59;;;;;;;3.40;1.70;;;;;;;;;;6147012;23;20435;-46
2022/01/03 04:02:24;;;;;;;5.32;2.15;;;;;;;;;;6147198;23;20018;-45
2022/01/03 04:04:49;;;;;;;7.53;2.10;;;;;;;;;;6147195;23;20427;-46
2022/01/03 04:07:15;;;;;;;8.77;3.25;;;;;;;;;;6145261;23;20104;-48
2022/01/03 04:09:40;;;;;;;4.43;2.20;;;;;;;;;;6145104;23;20013;-45
2022/01/03 04:12:05;;;;;;;7.03;2.20;;;;;;;;;;6147355;23;20018;-46
2022/01/03 04:14:31;;;;;;;4.38;1.95;;;;;;;;;;6146401;23;20009;-44
2022/01/03 04:16:56;;;;;;;7.00;2.08;;;;;;;;;;6147305;23;20009;-46
2022/01/03 04:19:21;;;;;;;6.30;2.33;;;;;;;;;;6146716;23;20018;-45
2022/01/03 04:21:46;;;;;;;4.43;2.13;;;;;;;;;;6147536;23;20020;-45
2022/01/03 04:24:12;;;;;;;7.20;1.98;;;;;;;;;;6145799;23;20404;-45
2022/01/03 04:26:37;;;;;;;5.38;1.92;;;;;;;;;;6147168;23;20084;-45
2022/01/03 04:29:03;;;;;;;2.63;1.42;;;;;;;;;;6146792;23;20020;-46
2022/01/03 04:31:29;;;;;;;4.65;2.17;;;;;;;;;;6146551;23;20013;-48
2022/01/03 04:33:54;;;;;;;6.95;2.03;;;;;;;;;;6144592;23;20456;-45
2022/01/03 04:36:19;;;;;;;7.53;2.30;;;;;;;;;;6146902;23;20097;-45
2022/01/03 04:38:44;;;;;;;7.20;2.03;;;;;;;;;;6147057;23;20093;-45
2022/01/03 04:41:11;;;;;;;3.33;1.80;;;;;;;;;;6144958;23;20409;-47
2022/01/03 04:43:37;;;;;;;5.00;1.50;;;;;;;;;;6147372;23;20012;-47
2022/01/03 04:46:03;;;;;;;5.18;2.33;;;;;;;;;;6145105;23;20045;-46
2022/01/03 04:48:28;;;;;;;6.35;1.92;;;;;;;;;;6146158;23;20021;-45
2022/01/03 04:50:53;;;;;;;7.25;2.30;;;;;;;;;;6142572;23;21026;-45
2022/01/03 04:53:21;;;;;;;5.03;1.80;;;;;;;;;;6147000;23;20013;-45
2022/01/03 04:55:46;;;;;;;4.07;2.25;;;;;;;;;;6146831;23;20010;-45
2022/01/03 04:58:11;;;;;;;5.18;2.38;;;;;;;;;;6146252;23;20125;-47
2022/01/03 05:00:37;;;;;;;6.72;2.45;;;;;;;;;;6146954;23;20017;-47
2022/01/03 05:03:03;;;;;;;6.00;2.20;;;;;;;;;;6147067;23;20470;-45
2022/01/03 05:05:28;;;;;;;4.70;2.22;;;;;;;;;;6145374;23;20040;-44
2022/01/03 05:07:53;;;;;;;3.97;2.33;;;;;;;;;;6147392;23;20021;-46
2022/01/03 05:10:19;;;;;;;5.43;2.35;;;;;;;;;;6146601;23;20021;-46
2022/01/03 05:12:44;;;;;;;4.88;2.55;;;;;;;;;;6146688;23;20010;-45
2022/01/03 05:15:10;;;;;;;5.25;2.13;;;;;;;;;;6146411;23;20081;-46
2022/01/03 05:17:35;;;;;;;4.65;2.53;;;;;;;;;;6146335;23;20009;-45
2022/01/03 05:20:00;;;;;;;6.35;1.77;;;;;;;;;;6146918;23;20033;-45
2022/01/03 05:22:25;;;;;;;10.80;2.83;;;;;;;;;;6145669;23;20014;-45
2022/01/03 05:24:51;;;;;;;7.60;2.60;;;;;;;;;;6146556;23;20025;-45
2022/01/03 05:27:16;;;;;;;5.00;2.10;;;;;;;;;;6146370;23;20016;-46
2022/01/03 05:29:42;;;;;;;4.22;2.10;;;;;;;;;;6145966;23;20013;-47
2022/01/03 05:32:07;;;;;;;9.75;3.05;;;;;;;;;;6147116;23;20016;-45
2022/01/03 05:34:32;;;;;;;4.38;1.88;;;;;;;;;;6145640;23;20010;-44
2022/01/03 05:36:57;;;;;;;9.40;2.00;;;;;;;;;;6146970;23;20006;-45
2022/01/03 05:39:23;;;;;;;5.25;2.05;;;;;;;;;;6145867;23;20087;-48
2022/01/03 05:41:48;;;;;;;7.43;2.20;;;;;;;;;;6146938;23;20013;-45
2022/01/03 05:44:13;;;;;;;6.10;2.28;;;;;;;;;;6145267;23;20016;-45
2022/01/03 05:46:38;;;;;;;4.85;2.40;;;;;;;;;;6146627;23;20025;-48
2022/01/03 05:49:06;;;;;;;5.93;2.33;;;;;;;;;;6144290;23;20040;-45
2022/01/03 05:51:31;;;;;;;7.47;2.50;;;;;;;;;;6146605;23;20032;-44
2022/01/03 05:53:56;;;;;;;9.50;2.50;;;;;;;;;;6146280;23;20005;-46
2022/01/03 05:56:22;;;;;;;8.68;2.50;;;;;;;;;;6146007;23;20014;-45
2022/01/03 05:58:47;;;;;;;8.18;2.03;;;;;;;;;;6146347;23;20048;-44
2022/01/03 06:01:13;;;;;;;4.90;2.30;;;;;;;;;;6146118;23;20013;-47
2022/01/03 06:03:39;;;;;;;6.85;1.92;;;;;;;;;;6146384;23;20468;-45
2022/01/03 06:06:19;;;;;;;7.70;1.92;;;;;;;;;;6144146;23;20445;-45
2022/01/03 06:08:44;;;;;;;5.03;2.28;;;;;;;;;;6146359;23;20040;-45
2022/01/03 06:11:09;;;;;;;7.43;2.63;;;;;;;;;;6145974;23;20357;-48
2022/01/03 06:13:35;;;;;;;5.15;2.63;;;;;;;;;;6146628;23;20089;-49
2022/01/03 06:16:00;;;;;;;9.50;2.20;;;;;;;;;;6146422;23;20444;-50
2022/01/03 06:18:25;;;;;;;6.60;2.47;;;;;;;;;;6146019;23;20040;-51
2022/01/03 06:20:51;;;;;;;5.68;2.65;;;;;;;;;;6146784;23;20010;-49
2022/01/03 06:23:17;;;;;;;4.18;1.95;;;;;;;;;;6145623;23;20013;-52
2022/01/03 06:25:43;;;;;;;4.97;1.92;;;;;;;;;;6146214;23;20045;-48
2022/01/03 06:28:09;;;;;;;7.57;2.55;;;;;;;;;;6145885;23;20010;-48
2022/01/03 06:30:38;;;;;;;7.85;2.30;;;;;;;;;;6146754;23;20077;-49
2022/01/03 06:33:04;;;;;;;5.95;1.98;;;;;;;;;;6146611;23;20888;-50
2022/01/03 06:35:29;;;;;;;7.00;2.55;;;;;;;;;;6145923;23;20009;-50
2022/01/03 06:37:55;;;;;;;6.40;2.58;;;;;;;;;;6146145;23;20541;-46
2022/01/03 06:40:20;;;;;;;9.55;3.13;;;;;;;;;;6146636;23;20496;-47
2022/01/03 06:42:45;;;;;;;3.70;2.25;;;;;;;;;;6147517;23;20080;-46
2022/01/03 06:45:11;;;;;;;6.60;1.98;;;;;;;;;;6147513;23;20063;-47
2022/01/03 06:47:36;;;;;;;2.78;1.73;;;;;;;;;;6147769;23;20463;-46
2022/01/03 06:50:02;;;;;;;6.55;2.33;;;;;;;;;;6148351;23;20092;-46
2022/01/03 06:52:27;;;;;;;5.90;2.20;;;;;;;;;;6147401;23;20014;-46
2022/01/03 06:54:52;;;;;;;6.45;2.03;;;;;;;;;;6146407;23;20017;-48
2022/01/03 06:57:18;;;;;;;8.52;2.65;;;;;;;;;;6147431;23;20069;-46
2022/01/03 06:59:43;;;;;;;11.57;2.53;;;;;;;;;;6148279;23;20006;-45
2022/01/03 07:02:08;;;;;;;7.53;2.45;;;;;;;;;;6145887;23;20104;-48
2022/01/03 07:04:33;;;;;;;14.98;2.83;;;;;;;;;;6147549;23;20005;-49
2022/01/03 07:06:59;;;;;;;4.60;2.00;;;;;;;;;;6147244;23;20028;-48
2022/01/03 07:09:24;;;;;;;5.70;2.35;;;;;;;;;;6147633;23;20332;-48
2022/01/03 07:11:49;;;;;;;7.75;2.47;;;;;;;;;;6147991;23;20020;-47
2022/01/03 07:19:38;;;;;;;7.18;2.65;;;;;;;;;;6147236;23;20061;-49
2022/01/03 07:22:04;;;;;;;5.13;1.98;;;;;;;;;;6148369;23;20005;-47
2022/01/03 07:24:33;;;;;;;8.50;1.88;;;;;;;;;;6145153;23;20456;-48
2022/01/03 07:27:02;;;;;;;8.27;2.53;;;;;;;;;;6147441;23;20013;-48
2022/01/03 07:29:27;;;;;;;7.13;2.27;;;;;;;;;;6146833;23;20018;-45
2022/01/03 07:31:52;;;;;;;11.05;3.20;;;;;;;;;;6147814;23;20768;-47
2022/01/03 07:34:18;;;;;;;5.90;2.53;;;;;;;;;;6146639;23;20076;-45
2022/01/03 07:36:43;;;;;;;4.47;2.20;;;;;;;;;;6147496;23;20356;-47
2022/01/03 07:39:08;;;;;;;4.30;2.10;;;;;;;;;;6147602;23;20009;-49
2022/01/03 07:41:34;;;;;;;7.25;3.15;;;;;;;;;;6145387;23;20056;-47
2022/01/03 07:43:59;;;;;;;4.43;2.15;;;;;;;;;;6146763;23;20348;-47
2022/01/03 07:46:24;;;;;;;4.18;2.28;;;;;;;;;;6146697;23;20334;-47
2022/01/03 07:48:49;;;;;;;9.13;2.55;;;;;;;;;;6147234;23;20378;-47
2022/01/03 07:51:14;;;;;;;8.30;2.65;;;;;;;;;;6146989;23;20028;-47
2022/01/03 07:53:42;;;;;;;6.93;2.20;;;;;;;;;;6147161;23;20452;-45
2022/01/03 07:56:09;;;;;;;6.85;2.75;;;;;;;;;;6147246;23;20507;-46
2022/01/03 07:58:34;;;;;;;4.93;2.67;;;;;;;;;;6146318;23;20065;-46
2022/01/03 08:01:00;;;;;;;5.93;3.38;;;;;;;;;;6147703;23;20021;-47
2022/01/03 08:03:25;;;;;;;6.35;2.72;;;;;;;;;;6146383;23;20009;-45
2022/01/03 08:05:50;;;;;;;9.05;2.38;;;;;;;;;;6147516;23;20017;-45
2022/01/03 08:08:15;;;;;;;7.28;2.50;;;;;;;;;;6146065;23;20383;-48
2022/01/03 08:10:42;;;;;;;5.75;2.20;;;;;;;;;;6147819;23;20463;-49
2022/01/03 08:13:08;;;;;;;8.27;2.70;;;;;;;;;;6147173;23;20014;-47
2022/01/03 08:15:33;;;;;;;4.45;1.90;;;;;;;;;;6147111;23;20439;-51
2022/01/03 08:17:58;;;;;;;4.72;2.28;;;;;;;;;;6147436;23;20013;-49
2022/01/03 08:20:25;;;;;;;8.23;2.05;;;;;;;;;;6145229;23;20068;-50
2022/01/03 08:22:50;;;;;;;8.45;1.90;;;;;;;;;;6146522;23;20085;-49
2022/01/03 08:25:16;;;;;;;7.57;2.50;;;;;;;;;;6146375;23;20049;-49
2022/01/03 08:27:41;;;;;;;7.88;2.88;;;;;;;;;;6145239;23;20033;-47
2022/01/03 08:30:06;;;;;;;7.95;2.20;;;;;;;;;;6147522;23;20050;-49
2022/01/03 08:32:32;;;;;;;7.80;2.08;;;;;;;;;;6145789;23;20360;-48
2022/01/03 08:34:57;;;;;;;9.70;2.22;;;;;;;;;;6147484;23;20011;-47
2022/01/03 08:37:22;;;;;;;4.72;2.00;;;;;;;;;;6146300;23;20507;-46
2022/01/03 08:39:47;;;;;;;6.53;2.33;;;;;;;;;;6147616;23;20001;-48
2022/01/03 08:42:13;;;;;;;7.10;2.25;;;;;;;;;;6145742;23;20021;-47
2022/01/03 08:44:38;;;;;;;4.30;2.20;;;;;;;;;;6147026;23;20005;-48
2022/01/03 08:47:04;;;;;;;3.72;2.00;;;;;;;;;;6146469;23;20088;-46
2022/01/03 08:49:29;;;;;;;6.30;1.65;;;;;;;;;;6146677;23;20024;-47
2022/01/03 08:51:55;;;;;;;4.53;2.22;;;;;;;;;;6146643;23;20009;-47
2022/01/03 08:54:20;;;;;;;6.75;2.58;;;;;;;;;;6146512;23;20010;-47
2022/01/03 08:56:45;;;;;;;3.33;1.40;;;;;;;;;;6146652;23;20394;-46
2022/01/03 08:59:10;;;;;;;4.63;1.67;;;;;;;;;;6146359;23;20368;-45
2022/01/03 09:01:36;;;;;;;4.88;2.00;;;;;;;;;;6147058;23;20080;-47
2022/01/03 09:04:01;;;;;;;3.80;1.95;;;;;;;;;;6146100;23;20040;-47
2022/01/03 09:06:27;;;;;;;3.90;2.05;;;;;;;;;;6145889;23;20025;-46
2022/01/03 09:08:52;;;;;;;6.18;1.67;;;;;;;;;;6146639;23;20092;-46
2022/01/03 09:11:18;;;;;;;6.53;2.05;;;;;;;;;;6146756;23;20403;-47
2022/01/03 09:13:43;;;;;;;5.10;2.63;;;;;;;;;;6146385;23;20010;-49
2022/01/03 09:16:08;;;;;;;4.60;1.65;;;;;;;;;;6146895;23;20025;-50
2022/01/03 09:18:35;;;;;;;4.25;1.55;;;;;;;;;;6146415;23;20017;-47
2022/01/03 09:21:00;;;;;;;3.22;1.73;;;;;;;;;;6146937;23;20029;-45
2022/01/03 09:23:30;;;;;;;4.45;1.75;;;;;;;;;;6146050;23;20095;-47
2022/01/03 09:28:49;;;;;;;4.10;1.27;;;;;;;;;;6146343;23;19915;-46
2022/01/03 09:31:14;;;;;;;4.43;1.50;;;;;;;;;;6145964;23;20010;-46
2022/01/03 09:33:39;;;;;;;3.85;1.42;;;;;;;;;;6147196;23;20025;-47
2022/01/03 09:36:05;;;;;;;3.70;1.10;;;;;;;;;;6146282;23;20005;-46
2022/01/03 09:38:30;;;;;;;1.52;1.08;;;;;;;;;;6146260;23;20006;-46
2022/01/03 09:40:57;;;;;;;3.50;1.17;;;;;;;;;;6146337;23;20019;-45
2022/01/03 09:43:23;;;;;;;3.35;1.70;;;;;;;;;;6146284;23;20009;-48
2022/01/03 09:45:48;;;;;;;2.47;1.25;;;;;;;;;;6143993;23;20058;-47
2022/01/03 09:48:14;;;;;;;1.95;1.10;;;;;;;;;;6144646;23;20348;-49
2022/01/03 09:50:40;;;;;;;2.90;1.10;;;;;;;;;;6147191;23;20037;-46
2022/01/03 09:53:06;;;;;;;1.42;1.02;;;;;;;;;;6146439;23;20037;-49
2022/01/03 09:55:31;;;;;;;1.25;0.98;;;;;;;;;;6144232;23;20464;-47
2022/01/03 09:57:57;;;;;;;4.57;1.20;;;;;;;;;;6146290;23;20033;-45
2022/01/03 10:00:23;;;;;;;1.23;1.00;;;;;;;;;;6146015;23;20021;-47
2022/01/03 10:02:52;;;;;;;5.00;1.73;;;;;;;;;;6147009;23;20076;-48
2022/01/03 10:05:18;;;;;;;1.17;1.08;;;;;;;;;;6145332;23;20460;-46
2022/01/03 10:07:43;;;;;;;6.28;1.27;;;;;;;;;;6146693;23;20025;-45
2022/01/03 10:10:09;;;;;;;2.53;0.77;;;;;;;;;;6146047;23;20009;-47
2022/01/03 10:12:36;;;;;;;1.48;1.08;;;;;;;;;;6146106;23;20037;-46
2022/01/03 10:15:04;;;;;;;3.30;1.77;;;;;;;;;;6147173;23;20036;-45
2022/01/03 10:17:33;;;;;;;2.80;1.92;;;;;;;;;;6147418;23;20687;-49
2022/01/03 10:20:02;;;;;;;5.78;2.03;;;;;;;;;;6148072;23;20815;-45
2022/01/03 10:22:28;;;;;;;2.38;0.80;;;;;;;;;;6147977;23;20723;-46
2022/01/03 10:24:54;;;;;;;4.43;1.10;;;;;;;;;;6148089;23;20459;-46
2022/01/03 10:27:21;;;;;;;1.63;0.85;;;;;;;;;;6147122;23;20013;-44
2022/01/03 10:29:53;;;;;;;2.47;1.20;;;;;;;;;;6148713;23;20016;-45
2022/01/03 10:32:23;;;;;;;2.17;1.00;;;;;;;;;;6147259;23;20095;-48
2022/01/03 10:34:49;;;;;;;1.30;1.10;;;;;;;;;;6148630;23;20006;-46
2022/01/03 10:37:14;;;;;;;3.30;1.02;;;;;;;;;;6147339;23;20093;-46
2022/01/03 10:39:39;;;;;;;2.15;1.17;;;;;;;;;;6147986;23;20014;-48
2022/01/03 10:42:12;;;;;;;3.38;1.05;;;;;;;;;;6144924;23;20001;-46
2022/01/03 10:44:40;;;;;;;3.53;1.02;;;;;;;;;;6146783;23;20020;-45
2022/01/03 10:47:08;;;;;;;1.55;1.30;;;;;;;;;;6148090;23;20031;-45
2022/01/03 10:49:33;;;;;;;2.38;0.70;;;;;;;;;;6147265;23;20072;-46
2022/01/03 10:52:14;;;;;;;2.35;1.10;;;;;;;;;;6144651;23;20010;-45
2022/01/03 10:54:39;;;;;;;2.13;0.90;;;;;;;;;;6145010;23;20092;-45
2022/01/03 10:57:05;;;;;;;2.53;1.33;;;;;;;;;;6144533;23;20380;-44
2022/01/03 10:59:31;;;;;;;4.97;1.23;;;;;;;;;;6145357;23;20040;-45
2022/01/03 11:01:56;;;;;;;4.25;1.40;;;;;;;;;;6144688;23;20009;-46
2022/01/03 11:04:25;;;;;;;3.28;1.10;;;;;;;;;;6144445;23;20734;-45
2022/01/03 11:10:43;;;;;;;2.67;0.93;;;;;;;;;;6144313;23;20052;-47
2022/01/03 11:13:03;;;;;;;4.07;1.38;;;;;;;;;;6145127;23;20016;-45
2022/01/03 11:15:28;;;;;;;2.20;1.00;;;;;;;;;;6143196;23;20448;-46
2022/01/03 11:18:07;;;;;;;3.03;1.38;;;;;;;;;;6144795;23;20018;-45
2022/01/03 11:20:33;;;;;;;2.95;0.77;;;;;;;;;;6143463;23;20380;-46
2022/01/03 11:22:59;;;;;;;2.60;1.75;;;;;;;;;;6145008;23;20013;-44
2022/01/03 11:25:31;;;;;;;3.88;1.77;;;;;;;;;;6144278;23;20100;-45
2022/01/03 11:27:57;;;;;;;6.03;1.10;;;;;;;;;;6145575;23;20011;-45
2022/01/03 11:30:22;;;;;;;5.15;1.55;;;;;;;;;;6146554;23;20033;-50
2022/01/03 11:32:49;;;;;;;3.42;1.65;;;;;;;;;;6147310;23;20081;-47
2022/01/03 11:35:14;;;;;;;4.35;1.10;;;;;;;;;;6145113;23;20119;-45
2022/01/03 11:37:40;;;;;;;3.63;1.10;;;;;;;;;;6147673;23;20018;-45
2022/01/03 11:40:08;;;;;;;1.70;1.08;;;;;;;;;;6147776;23;20013;-45
2022/01/03 11:42:33;;;;;;;2.55;1.40;;;;;;;;;;6146312;23;20016;-46
2022/01/03 11:44:59;;;;;;;2.40;1.35;;;;;;;;;;6147966;23;20021;-49
2022/01/03 11:47:25;;;;;;;2.83;1.48;;;;;;;;;;6146424;23;20376;-46
2022/01/03 11:49:51;;;;;;;2.15;1.08;;;;;;;;;;6148167;23;20025;-47
2022/01/03 11:52:16;;;;;;;5.53;1.63;;;;;;;;;;6145885;23;20017;-46
2022/01/03 11:54:42;;;;;;;5.80;1.15;;;;;;;;;;6147621;23;20002;-47
2022/01/03 11:57:19;;;;;;;3.30;1.27;;;;;;;;;;6146722;23;20037;-48
2022/01/03 12:05:46;;;;;;;1.65;1.20;;;;;;;;;;6145877;23;20053;-48
2022/01/03 12:08:21;;;;;;;5.47;1.60;;;;;;;;;;6144129;23;20470;-46
2022/01/03 12:10:46;;;;;;;3.25;1.38;;;;;;;;;;6146308;23;20005;-47
2022/01/03 12:13:12;;;;;;;2.95;1.10;;;;;;;;;;6146033;23;20092;-50
2022/01/03 12:15:41;;;;;;;1.67;1.42;;;;;;;;;;6147458;23;20010;-47
2022/01/03 12:18:24;;;;;;;2.00;1.30;;;;;;;;;;6146837;23;20006;-50
2022/01/03 12:20:50;;;;;;;4.47;1.25;;;;;;;;;;6147252;23;20036;-45
2022/01/03 12:23:47;;;;;;;2.08;1.05;;;;;;;;;;6146568;23;20322;-47
2022/01/03 12:26:14;;;;;;;1.25;1.15;;;;;;;;;;6064032;23;20462;-45
2022/01/03 12:28:58;;;;;;;4.28;1.38;;;;;;;;;;6147490;23;20012;-48
2022/01/03 12:31:23;;;;;;;4.60;1.48;;;;;;;;;;6146349;23;20089;-46
2022/01/03 12:34:07;;;;;;;2.35;1.17;;;;;;;;;;6147888;23;20036;-45
2022/01/03 12:36:32;;;;;;;2.08;1.15;;;;;;;;;;6146506;23;20693;-46
2022/01/03 12:39:02;;;;;;;1.55;0.70;;;;;;;;;;6146618;23;20036;-44
2022/01/03 12:41:41;;;;;;;2.05;1.20;;;;;;;;;;6145743;23;20059;-45
2022/01/03 12:44:09;;;;;;;4.18;1.27;;;;;;;;;;6146313;23;20451;-48
2022/01/03 12:46:34;;;;;;;3.83;1.35;;;;;;;;;;6144085;23;20013;-44
2022/01/03 12:49:19;;;;;;;3.40;1.10;;;;;;;;;;6147305;23;20411;-45
2022/01/03 12:51:44;;;;;;;3.75;1.33;;;;;;;;;;6145839;23;20013;-45
2022/01/03 12:54:10;;;;;;;7.63;1.60;;;;;;;;;;6146156;23;20093;-45
2022/01/03 12:56:36;;;;;;;2.08;1.10;;;;;;;;;;6146444;23;20017;-45
2022/01/03 12:59:08;;;;;;;2.75;1.33;;;;;;;;;;6146915;23;20089;-48
2022/01/03 13:01:34;;;;;;;2.15;1.00;;;;;;;;;;6146062;23;20005;-47
2022/01/03 13:04:00;;;;;;;5.03;1.50;;;;;;;;;;6146416;23;20329;-44
2022/01/03 13:06:25;;;;;;;4.35;1.40;;;;;;;;;;6141079;23;20040;-45
2022/01/03 13:08:53;;;;;;;4.82;1.38;;;;;;;;;;6143981;23;20009;-44
2022/01/03 13:11:20;;;;;;;5.30;1.60;;;;;;;;;;6142479;23;20018;-46
2022/01/03 13:13:46;;;;;;;3.72;2.05;;;;;;;;;;6144334;23;20001;-45
2022/01/03 13:16:18;;;;;;;3.53;1.75;;;;;;;;;;6142270;23;20022;-44
2022/01/03 13:18:53;;;;;;;2.60;1.10;;;;;;;;;;6143861;23;20021;-46
2022/01/03 13:21:20;;;;;;;5.25;2.30;;;;;;;;;;6142510;23;20460;-44
2022/01/03 13:23:55;;;;;;;3.25;1.55;;;;;;;;;;6143879;23;20028;-45
2022/01/03 13:26:22;;;;;;;4.30;1.75;;;;;;;;;;6142236;23;20415;-45
2022/01/03 13:28:48;;;;;;;2.42;1.15;;;;;;;;;;6143299;23;20012;-46
2022/01/03 13:31:14;;;;;;;5.75;1.83;;;;;;;;;;6143250;23;20017;-45
2022/01/03 13:33:39;;;;;;;4.10;1.60;;;;;;;;;;6144197;23;20821;-47
2022/01/03 13:36:05;;;;;;;4.28;1.33;;;;;;;;;;6142407;23;20020;-44
2022/01/03 13:38:31;;;;;;;3.35;1.67;;;;;;;;;;6142457;23;20081;-46
2022/01/03 13:41:15;;;;;;;5.80;1.60;;;;;;;;;;6144375;23;20013;-45
2022/01/03 13:43:47;;;;;;;3.47;1.15;;;;;;;;;;6142572;23;20013;-46
2022/01/03 13:49:11;;;;;;;;;;;;;;;;;;6147001;23;20020;-45
2022/01/03 13:51:36;;;;;;;5.03;1.33;;;;;;;;;;6148292;23;20243;-44
2022/01/03 13:54:02;;;;;;;4.38;1.77;;;;;;;;;;6148157;23;20073;-45
2022/01/03 13:56:38;;;;;;;4.47;1.67;;;;;;;;;;6147999;23;20017;-46
2022/01/03 13:59:06;;;;;;;4.10;1.70;;;;;;;;;;6148661;23;20010;-45
2022/01/03 14:01:31;;;;;;;2.65;1.60;;;;;;;;;;6147973;23;20324;-44
2022/01/03 14:03:56;;;;;;;3.83;1.33;;;;;;;;;;6142228;23;20006;-46
2022/01/03 14:06:23;;;;;;;4.75;1.10;;;;;;;;;;6141362;23;20080;-46
2022/01/03 14:08:53;;;;;;;5.95;1.70;;;;;;;;;;6144266;23;20017;-45
2022/01/03 14:11:20;;;;;;;3.03;1.33;;;;;;;;;;6142483;23;20068;-44
2022/01/03 14:13:45;;;;;;;1.98;1.30;;;;;;;;;;6143959;23;20444;-44
2022/01/03 14:16:11;;;;;;;5.60;1.30;;;;;;;;;;6141518;23;20024;-45
2022/01/03 14:18:49;;;;;;;3.47;1.65;;;;;;;;;;6144022;23;20005;-45
2022/01/03 14:21:16;;;;;;;2.72;2.17;;;;;;;;;;6142305;23;20020;-46
2022/01/03 14:23:53;;;;;;;6.55;2.00;;;;;;;;;;6144056;23;20009;-44
2022/01/03 14:26:31;;;;;;;4.85;1.70;;;;;;;;;;6142044;23;20022;-46
2022/01/03 14:29:12;;;;;;;4.63;1.33;;;;;;;;;;6143711;23;20010;-44
2022/01/03 14:31:57;;;;;;;4.28;1.95;;;;;;;;;;6139711;23;20024;-45
2022/01/03 14:34:29;;;;;;;6.85;1.60;;;;;;;;;;6139939;23;20104;-46
2022/01/03 14:36:56;;;;;;;3.88;1.40;;;;;;;;;;6141895;23;20019;-45
2022/01/03 14:39:22;;;;;;;7.05;1.60;;;;;;;;;;6142707;23;20022;-46
2022/01/03 14:42:04;;;;;;;2.72;1.63;;;;;;;;;;6143707;23;20645;-45
2022/01/03 14:44:30;;;;;;;4.03;1.50;;;;;;;;;;6140982;23;20538;-45
2022/01/03 14:47:00;;;;;;;5.18;2.00;;;;;;;;;;6142847;23;20028;-44
2022/01/03 14:49:25;;;;;;;3.67;1.17;;;;;;;;;;6142041;23;20005;-47
2022/01/03 14:51:51;;;;;;;4.82;1.67;;;;;;;;;;6143095;23;20032;-44
2022/01/03 14:54:21;;;;;;;2.80;1.45;;;;;;;;;;6142431;23;20440;-45
2022/01/03 14:56:47;;;;;;;1.25;0.85;;;;;;;;;;6143236;23;20044;-45
2022/01/03 14:59:15;;;;;;;5.07;2.15;;;;;;;;;;6143268;23;20021;-50
2022/01/03 15:01:42;;;;;;;2.00;1.23;;;;;;;;;;6142258;23;20071;-45
2022/01/03 15:04:07;;;;;;;2.92;1.10;;;;;;;;;;6142709;23;20113;-46
2022/01/03 15:06:32;;;;;;;6.93;1.27;;;;;;;;;;6138810;23;20101;-47